createdAt,value
2023-02-08T02:15:01.451Z,-5.82
2023-02-08T02:30:01.780Z,-6.7
2023-02-08T02:45:02.609Z,-5.8
2023-02-08T03:00:01.674Z,-6.17
2023-02-08T03:15:02.610Z,-6.48
2023-02-08T03:30:01.351Z,-6.5
2023-02-08T03:45:01.647Z,-6.5
2023-02-08T04:00:02.088Z,-6.5
2023-02-08T04:15:02.188Z,-6.5
2023-02-08T04:30:02.728Z,-6.5
2023-02-08T04:45:01.401Z,-6.5
2023-02-08T05:00:01.720Z,-6.5
2023-02-08T05:15:01.971Z,-6.5
2023-02-08T05:30:02.663Z,-6.5
2023-02-08T05:45:01.409Z,-6.5
2023-02-08T06:00:01.804Z,-6.5
2023-02-08T06:15:01.909Z,-6.5
2023-02-08T06:30:02.509Z,-6.5
2023-02-08T06:45:03.116Z,-6.5
2023-02-08T07:00:01.465Z,-6.5
2023-02-08T07:15:02.261Z,-6.5
2023-02-08T07:30:02.367Z,-6.5
2023-02-08T07:45:02.983Z,-6.5
2023-02-08T08:00:02.310Z,-6.5
2023-02-08T08:15:01.880Z,-6.5
2023-02-08T08:30:02.416Z,-6.5
2023-02-08T08:45:02.988Z,-6.5
2023-02-08T09:00:01.399Z,-6.5
2023-02-08T09:15:02.193Z,-6.5
2023-02-08T09:30:02.478Z,-6.5
2023-02-08T09:45:02.979Z,-6.5
2023-02-08T10:00:02.209Z,-6.5
2023-02-08T10:15:02.369Z,-6.5
2023-02-08T10:30:02.939Z,-6.5
2023-02-08T10:45:01.615Z,-6.5
2023-02-08T11:00:02.009Z,-6.5
2023-02-08T11:15:02.544Z,-6.5
2023-02-08T11:30:02.931Z,15.67
2023-02-08T11:45:01.356Z,15.39
2023-02-08T12:00:01.770Z,15.39
2023-02-08T12:15:01.956Z,15.39
2023-02-08T12:30:02.805Z,18.63
2023-02-08T12:45:01.563Z,19.15
2023-02-08T13:00:01.885Z,19.15
2023-02-08T13:15:03.077Z,19.15
2023-02-08T13:30:02.488Z,19.15
2023-02-08T13:45:01.750Z,19.15
2023-02-08T14:00:02.063Z,19.15
2023-02-08T14:15:03.059Z,19.15
2023-02-08T14:30:02.464Z,19.15
2023-02-08T14:45:02.274Z,9.97
2023-02-08T15:00:06.687Z,7.82
2023-02-08T15:15:01.493Z,5.7
2023-02-08T15:30:03.054Z,2.11
2023-02-08T15:45:02.586Z,1.24
2023-02-08T16:00:01.418Z,0.76
2023-02-08T16:15:02.112Z,0.46
2023-02-08T16:30:02.191Z,0.24
2023-02-08T16:45:01.379Z,0.19
2023-02-08T17:00:02.055Z,-1.4
2023-02-08T17:15:06.899Z,-1.3
2023-02-08T17:30:01.919Z,-1.83
2023-02-08T17:45:07.598Z,-1.76
2023-02-08T18:00:02.321Z,-1.84
2023-02-08T18:15:06.420Z,-2.7
2023-02-08T18:30:02.290Z,-2.59
2023-02-08T18:45:02.743Z,-3.11
2023-02-08T19:00:03.546Z,-3.27
2023-02-08T19:15:02.630Z,-3.29
2023-02-08T19:30:01.656Z,-4.13
2023-02-08T19:45:02.622Z,-4.79
2023-02-08T20:00:04.391Z,-4.57
2023-02-08T20:15:02.629Z,-4.92
2023-02-08T20:30:02.243Z,-5.5
2023-02-08T20:45:01.572Z,-4.94
2023-02-08T21:00:01.939Z,-4.9
2023-02-08T21:15:02.667Z,-5.3
2023-02-08T21:30:03.512Z,-5.17
2023-02-08T21:45:01.437Z,-4.78
2023-02-08T22:00:01.820Z,-4.88
2023-02-08T22:15:02.729Z,-5.1
2023-02-08T22:30:01.955Z,-5.71
2023-02-08T22:45:02.733Z,-5.98
2023-02-08T23:00:02.355Z,-6.42
2023-02-08T23:15:02.948Z,-6.9
2023-02-08T23:30:01.758Z,-5.82
2023-02-08T23:45:01.690Z,-6
